sensor_id;sensor_type;location;lat;lon;timestamp;P1;durP1;ratioP1;P2;durP2;ratioP2
21270;SDS011;10795;50.796;3.860;2023-08-20T00:00:35;8.05;;;2.35;;
21270;SDS011;10795;50.796;3.860;2023-08-20T00:03:08;6.97;;;2.78;;
21270;SDS011;10795;50.796;3.860;2023-08-20T00:05:37;7.15;;;2.20;;
21270;SDS011;10795;50.796;3.860;2023-08-20T00:08:04;6.65;;;2.60;;
21270;SDS011;10795;50.796;3.860;2023-08-20T00:10:30;7.38;;;2.60;;
21270;SDS011;10795;50.796;3.860;2023-08-20T00:12:57;9.55;;;3.10;;
21270;SDS011;10795;50.796;3.860;2023-08-20T00:15:23;8.75;;;2.78;;
21270;SDS011;10795;50.796;3.860;2023-08-20T00:17:54;6.43;;;3.17;;
21270;SDS011;10795;50.796;3.860;2023-08-20T00:20:21;7.38;;;3.13;;
21270;SDS011;10795;50.796;3.860;2023-08-20T00:22:47;7.00;;;2.88;;
21270;SDS011;10795;50.796;3.860;2023-08-20T00:25:14;7.35;;;2.63;;
21270;SDS011;10795;50.796;3.860;2023-08-20T00:27:41;7.35;;;2.38;;
21270;SDS011;10795;50.796;3.860;2023-08-20T00:30:09;11.98;;;3.20;;
21270;SDS011;10795;50.796;3.860;2023-08-20T00:32:35;6.20;;;2.40;;
21270;SDS011;10795;50.796;3.860;2023-08-20T00:35:02;10.20;;;2.75;;
21270;SDS011;10795;50.796;3.860;2023-08-20T00:37:28;5.65;;;2.75;;
21270;SDS011;10795;50.796;3.860;2023-08-20T00:39:57;6.28;;;2.90;;
21270;SDS011;10795;50.796;3.860;2023-08-20T00:42:23;5.20;;;2.50;;
21270;SDS011;10795;50.796;3.860;2023-08-20T00:44:51;6.25;;;2.42;;
21270;SDS011;10795;50.796;3.860;2023-08-20T00:47:18;4.82;;;2.40;;
21270;SDS011;10795;50.796;3.860;2023-08-20T00:49:45;7.95;;;2.60;;
21270;SDS011;10795;50.796;3.860;2023-08-20T00:52:12;8.02;;;2.53;;
21270;SDS011;10795;50.796;3.860;2023-08-20T00:54:40;8.20;;;3.38;;
21270;SDS011;10795;50.796;3.860;2023-08-20T00:57:07;13.05;;;3.95;;
21270;SDS011;10795;50.796;3.860;2023-08-20T00:59:33;8.65;;;3.30;;
21270;SDS011;10795;50.796;3.860;2023-08-20T01:02:00;5.53;;;2.80;;
21270;SDS011;10795;50.796;3.860;2023-08-20T01:04:27;6.35;;;2.63;;
21270;SDS011;10795;50.796;3.860;2023-08-20T01:12:02;9.20;;;3.05;;
21270;SDS011;10795;50.796;3.860;2023-08-20T01:14:29;10.70;;;3.38;;
21270;SDS011;10795;50.796;3.860;2023-08-20T01:16:55;9.32;;;3.60;;
21270;SDS011;10795;50.796;3.860;2023-08-20T01:19:21;7.72;;;2.53;;
21270;SDS011;10795;50.796;3.860;2023-08-20T01:24:46;9.07;;;2.90;;
21270;SDS011;10795;50.796;3.860;2023-08-20T01:29:58;6.35;;;2.45;;
21270;SDS011;10795;50.796;3.860;2023-08-20T01:32:25;9.20;;;2.72;;
21270;SDS011;10795;50.796;3.860;2023-08-20T01:34:54;7.35;;;2.95;;
21270;SDS011;10795;50.796;3.860;2023-08-20T01:39:51;8.85;;;2.75;;
21270;SDS011;10795;50.796;3.860;2023-08-20T01:42:17;12.25;;;3.28;;
21270;SDS011;10795;50.796;3.860;2023-08-20T01:44:47;7.30;;;2.90;;
21270;SDS011;10795;50.796;3.860;2023-08-20T01:47:18;4.68;;;2.28;;
21270;SDS011;10795;50.796;3.860;2023-08-20T01:49:46;4.60;;;1.98;;
21270;SDS011;10795;50.796;3.860;2023-08-20T01:52:12;6.05;;;2.28;;
21270;SDS011;10795;50.796;3.860;2023-08-20T01:54:40;3.97;;;1.80;;
21270;SDS011;10795;50.796;3.860;2023-08-20T01:57:06;5.15;;;2.30;;
21270;SDS011;10795;50.796;3.860;2023-08-20T01:59:32;7.30;;;2.65;;
21270;SDS011;10795;50.796;3.860;2023-08-20T02:02:01;8.85;;;2.75;;
21270;SDS011;10795;50.796;3.860;2023-08-20T02:04:27;7.63;;;2.53;;
21270;SDS011;10795;50.796;3.860;2023-08-20T02:06:52;9.43;;;2.72;;
21270;SDS011;10795;50.796;3.860;2023-08-20T02:09:19;9.88;;;3.10;;
21270;SDS011;10795;50.796;3.860;2023-08-20T02:11:45;9.18;;;3.30;;
21270;SDS011;10795;50.796;3.860;2023-08-20T02:14:11;8.75;;;2.60;;
21270;SDS011;10795;50.796;3.860;2023-08-20T02:16:37;9.63;;;3.33;;
21270;SDS011;10795;50.796;3.860;2023-08-20T02:19:03;7.13;;;2.92;;
21270;SDS011;10795;50.796;3.860;2023-08-20T02:21:31;8.50;;;3.47;;
21270;SDS011;10795;50.796;3.860;2023-08-20T02:23:56;6.07;;;3.22;;
21270;SDS011;10795;50.796;3.860;2023-08-20T02:26:23;6.75;;;2.80;;
21270;SDS011;10795;50.796;3.860;2023-08-20T02:28:48;9.82;;;2.95;;
21270;SDS011;10795;50.796;3.860;2023-08-20T02:31:14;8.40;;;2.92;;
21270;SDS011;10795;50.796;3.860;2023-08-20T02:33:41;6.03;;;2.70;;
21270;SDS011;10795;50.796;3.860;2023-08-20T02:36:12;6.13;;;2.72;;
21270;SDS011;10795;50.796;3.860;2023-08-20T02:38:41;8.57;;;3.03;;
21270;SDS011;10795;50.796;3.860;2023-08-20T02:41:09;4.90;;;2.60;;
21270;SDS011;10795;50.796;3.860;2023-08-20T02:43:35;5.22;;;2.33;;
21270;SDS011;10795;50.796;3.860;2023-08-20T02:46:01;6.18;;;2.50;;
21270;SDS011;10795;50.796;3.860;2023-08-20T02:48:27;5.00;;;2.28;;
21270;SDS011;10795;50.796;3.860;2023-08-20T02:50:54;2.63;;;1.85;;
21270;SDS011;10795;50.796;3.860;2023-08-20T02:53:20;3.95;;;2.60;;
21270;SDS011;10795;50.796;3.860;2023-08-20T02:55:47;7.57;;;2.45;;
21270;SDS011;10795;50.796;3.860;2023-08-20T02:58:15;6.82;;;2.40;;
21270;SDS011;10795;50.796;3.860;2023-08-20T03:00:41;3.58;;;2.10;;
21270;SDS011;10795;50.796;3.860;2023-08-20T03:03:11;6.75;;;2.50;;
21270;SDS011;10795;50.796;3.860;2023-08-20T03:05:39;8.03;;;2.67;;
21270;SDS011;10795;50.796;3.860;2023-08-20T03:08:06;6.82;;;2.60;;
21270;SDS011;10795;50.796;3.860;2023-08-20T03:10:32;4.28;;;2.63;;
21270;SDS011;10795;50.796;3.860;2023-08-20T03:13:05;6.30;;;2.60;;
21270;SDS011;10795;50.796;3.860;2023-08-20T03:15:31;5.88;;;2.70;;
21270;SDS011;10795;50.796;3.860;2023-08-20T03:17:57;5.07;;;2.33;;
21270;SDS011;10795;50.796;3.860;2023-08-20T03:20:23;5.20;;;2.25;;
21270;SDS011;10795;50.796;3.860;2023-08-20T03:22:49;6.70;;;2.38;;
21270;SDS011;10795;50.796;3.860;2023-08-20T03:25:21;4.88;;;2.38;;
21270;SDS011;10795;50.796;3.860;2023-08-20T03:27:47;3.60;;;2.50;;
21270;SDS011;10795;50.796;3.860;2023-08-20T03:30:13;5.97;;;2.40;;
21270;SDS011;10795;50.796;3.860;2023-08-20T03:32:42;2.45;;;1.70;;
21270;SDS011;10795;50.796;3.860;2023-08-20T03:35:10;4.65;;;2.33;;
21270;SDS011;10795;50.796;3.860;2023-08-20T03:37:37;3.25;;;2.10;;
21270;SDS011;10795;50.796;3.860;2023-08-20T03:40:03;3.47;;;1.95;;
21270;SDS011;10795;50.796;3.860;2023-08-20T03:42:30;3.53;;;2.20;;
21270;SDS011;10795;50.796;3.860;2023-08-20T03:44:58;10.32;;;2.85;;
21270;SDS011;10795;50.796;3.860;2023-08-20T03:47:24;5.82;;;2.63;;
21270;SDS011;10795;50.796;3.860;2023-08-20T03:49:53;2.47;;;1.40;;
21270;SDS011;10795;50.796;3.860;2023-08-20T03:52:19;6.88;;;2.70;;
21270;SDS011;10795;50.796;3.860;2023-08-20T03:54:45;7.63;;;3.03;;
21270;SDS011;10795;50.796;3.860;2023-08-20T03:57:11;8.23;;;3.00;;
21270;SDS011;10795;50.796;3.860;2023-08-20T03:59:37;4.05;;;2.80;;
21270;SDS011;10795;50.796;3.860;2023-08-20T04:02:02;7.35;;;2.85;;
21270;SDS011;10795;50.796;3.860;2023-08-20T04:04:28;5.28;;;2.47;;
21270;SDS011;10795;50.796;3.860;2023-08-20T04:06:57;2.57;;;1.40;;
21270;SDS011;10795;50.796;3.860;2023-08-20T04:09:23;6.55;;;3.05;;
21270;SDS011;10795;50.796;3.860;2023-08-20T04:11:49;5.72;;;3.08;;
21270;SDS011;10795;50.796;3.860;2023-08-20T04:14:15;3.90;;;1.60;;
21270;SDS011;10795;50.796;3.860;2023-08-20T04:16:44;5.03;;;2.65;;
21270;SDS011;10795;50.796;3.860;2023-08-20T04:19:10;6.68;;;2.97;;
21270;SDS011;10795;50.796;3.860;2023-08-20T04:21:35;7.57;;;2.90;;
21270;SDS011;10795;50.796;3.860;2023-08-20T04:24:01;5.90;;;2.47;;
21270;SDS011;10795;50.796;3.860;2023-08-20T04:26:28;4.35;;;2.75;;
21270;SDS011;10795;50.796;3.860;2023-08-20T04:28:56;6.45;;;3.00;;
21270;SDS011;10795;50.796;3.860;2023-08-20T04:31:22;6.13;;;2.78;;
21270;SDS011;10795;50.796;3.860;2023-08-20T04:33:55;5.38;;;2.50;;
21270;SDS011;10795;50.796;3.860;2023-08-20T04:36:28;3.70;;;2.35;;
21270;SDS011;10795;50.796;3.860;2023-08-20T04:38:54;6.50;;;2.42;;
21270;SDS011;10795;50.796;3.860;2023-08-20T04:41:23;3.78;;;2.35;;
21270;SDS011;10795;50.796;3.860;2023-08-20T04:43:49;3.63;;;2.65;;
21270;SDS011;10795;50.796;3.860;2023-08-20T04:46:16;4.22;;;2.63;;
21270;SDS011;10795;50.796;3.860;2023-08-20T04:48:44;5.28;;;2.42;;
21270;SDS011;10795;50.796;3.860;2023-08-20T04:51:10;4.53;;;3.17;;
21270;SDS011;10795;50.796;3.860;2023-08-20T04:53:36;5.45;;;2.90;;
21270;SDS011;10795;50.796;3.860;2023-08-20T04:56:02;3.13;;;1.90;;
21270;SDS011;10795;50.796;3.860;2023-08-20T04:58:28;3.38;;;1.33;;
21270;SDS011;10795;50.796;3.860;2023-08-20T05:00:54;1.63;;;0.98;;
21270;SDS011;10795;50.796;3.860;2023-08-20T05:03:23;2.08;;;0.88;;
21270;SDS011;10795;50.796;3.860;2023-08-20T05:05:49;1.20;;;1.10;;
21270;SDS011;10795;50.796;3.860;2023-08-20T05:08:19;2.10;;;0.77;;
21270;SDS011;10795;50.796;3.860;2023-08-20T05:10:45;0.90;;;0.90;;
21270;SDS011;10795;50.796;3.860;2023-08-20T05:13:11;2.47;;;1.20;;
21270;SDS011;10795;50.796;3.860;2023-08-20T05:15:37;2.10;;;1.55;;
21270;SDS011;10795;50.796;3.860;2023-08-20T05:18:05;1.50;;;1.40;;
21270;SDS011;10795;50.796;3.860;2023-08-20T05:20:31;3.03;;;1.48;;
21270;SDS011;10795;50.796;3.860;2023-08-20T05:22:57;3.47;;;1.95;;
21270;SDS011;10795;50.796;3.860;2023-08-20T05:25:26;4.70;;;2.08;;
21270;SDS011;10795;50.796;3.860;2023-08-20T05:27:55;4.20;;;2.25;;
21270;SDS011;10795;50.796;3.860;2023-08-20T05:30:21;6.35;;;2.05;;
21270;SDS011;10795;50.796;3.860;2023-08-20T05:32:47;2.42;;;2.15;;
21270;SDS011;10795;50.796;3.860;2023-08-20T05:35:13;3.33;;;2.15;;
21270;SDS011;10795;50.796;3.860;2023-08-20T05:37:44;2.25;;;1.70;;
21270;SDS011;10795;50.796;3.860;2023-08-20T05:40:10;1.52;;;1.35;;
21270;SDS011;10795;50.796;3.860;2023-08-20T05:42:37;4.78;;;2.03;;
21270;SDS011;10795;50.796;3.860;2023-08-20T05:45:05;2.00;;;1.77;;
21270;SDS011;10795;50.796;3.860;2023-08-20T05:47:32;3.05;;;2.33;;
21270;SDS011;10795;50.796;3.860;2023-08-20T05:49:59;4.55;;;2.50;;
21270;SDS011;10795;50.796;3.860;2023-08-20T05:52:25;1.00;;;0.70;;
21270;SDS011;10795;50.796;3.860;2023-08-20T05:54:51;5.40;;;2.35;;
21270;SDS011;10795;50.796;3.860;2023-08-20T05:57:17;2.28;;;1.10;;
21270;SDS011;10795;50.796;3.860;2023-08-20T05:59:43;3.28;;;0.90;;
21270;SDS011;10795;50.796;3.860;2023-08-20T06:02:09;1.02;;;0.60;;
21270;SDS011;10795;50.796;3.860;2023-08-20T06:04:35;1.17;;;0.60;;
21270;SDS011;10795;50.796;3.860;2023-08-20T06:07:01;2.40;;;0.75;;
21270;SDS011;10795;50.796;3.860;2023-08-20T06:09:29;1.80;;;1.02;;
21270;SDS011;10795;50.796;3.860;2023-08-20T06:11:55;1.02;;;0.70;;
21270;SDS011;10795;50.796;3.860;2023-08-20T06:14:21;6.30;;;2.03;;
21270;SDS011;10795;50.796;3.860;2023-08-20T06:16:47;1.20;;;1.00;;
21270;SDS011;10795;50.796;3.860;2023-08-20T06:19:15;1.75;;;0.80;;
21270;SDS011;10795;50.796;3.860;2023-08-20T06:21:47;1.98;;;1.10;;
21270;SDS011;10795;50.796;3.860;2023-08-20T06:24:16;1.00;;;0.77;;
21270;SDS011;10795;50.796;3.860;2023-08-20T06:26:42;3.00;;;0.80;;
21270;SDS011;10795;50.796;3.860;2023-08-20T06:29:09;4.00;;;1.90;;
21270;SDS011;10795;50.796;3.860;2023-08-20T06:31:35;2.97;;;1.25;;
21270;SDS011;10795;50.796;3.860;2023-08-20T06:34:06;5.45;;;1.73;;
21270;SDS011;10795;50.796;3.860;2023-08-20T06:36:39;2.03;;;0.80;;
21270;SDS011;10795;50.796;3.860;2023-08-20T06:39:11;1.92;;;0.80;;
21270;SDS011;10795;50.796;3.860;2023-08-20T06:41:50;5.18;;;2.10;;
21270;SDS011;10795;50.796;3.860;2023-08-20T06:44:42;5.22;;;1.65;;
21270;SDS011;10795;50.796;3.860;2023-08-20T06:47:34;7.65;;;2.63;;
21270;SDS011;10795;50.796;3.860;2023-08-20T10:18:27;3.05;;;0.38;;
21270;SDS011;10795;50.796;3.860;2023-08-20T10:20:59;1.65;;;0.40;;
21270;SDS011;10795;50.796;3.860;2023-08-20T16:23:58;7.45;;;1.48;;
21270;SDS011;10795;50.796;3.860;2023-08-20T16:26:31;3.95;;;1.00;;
21270;SDS011;10795;50.796;3.860;2023-08-20T16:29:06;7.47;;;1.58;;
21270;SDS011;10795;50.796;3.860;2023-08-20T16:36:48;5.95;;;1.42;;
21270;SDS011;10795;50.796;3.860;2023-08-20T16:55:58;5.40;;;1.20;;
21270;SDS011;10795;50.796;3.860;2023-08-20T16:59:16;4.30;;;1.20;;
21270;SDS011;10795;50.796;3.860;2023-08-20T17:04:53;2.90;;;1.08;;
21270;SDS011;10795;50.796;3.860;2023-08-20T17:07:19;3.30;;;1.33;;
21270;SDS011;10795;50.796;3.860;2023-08-20T17:09:48;4.70;;;1.40;;
21270;SDS011;10795;50.796;3.860;2023-08-20T17:12:37;4.80;;;1.40;;
21270;SDS011;10795;50.796;3.860;2023-08-20T17:15:05;6.10;;;1.50;;
21270;SDS011;10795;50.796;3.860;2023-08-20T17:17:34;3.33;;;1.40;;
21270;SDS011;10795;50.796;3.860;2023-08-20T17:20:00;3.45;;;1.25;;
21270;SDS011;10795;50.796;3.860;2023-08-20T17:22:26;3.55;;;1.15;;
21270;SDS011;10795;50.796;3.860;2023-08-20T17:25:11;5.32;;;1.25;;
21270;SDS011;10795;50.796;3.860;2023-08-20T17:27:37;4.95;;;1.38;;
21270;SDS011;10795;50.796;3.860;2023-08-20T17:32:49;5.75;;;1.30;;
21270;SDS011;10795;50.796;3.860;2023-08-20T17:35:25;5.40;;;1.27;;
21270;SDS011;10795;50.796;3.860;2023-08-20T17:37:51;8.13;;;1.30;;
21270;SDS011;10795;50.796;3.860;2023-08-20T17:40:40;4.83;;;1.20;;
21270;SDS011;10795;50.796;3.860;2023-08-20T17:43:06;3.85;;;1.20;;
21270;SDS011;10795;50.796;3.860;2023-08-20T17:45:58;4.13;;;1.20;;
21270;SDS011;10795;50.796;3.860;2023-08-20T17:48:29;5.97;;;1.45;;
21270;SDS011;10795;50.796;3.860;2023-08-20T17:51:06;5.32;;;1.17;;
21270;SDS011;10795;50.796;3.860;2023-08-20T17:53:32;4.63;;;1.23;;
21270;SDS011;10795;50.796;3.860;2023-08-20T17:56:10;5.38;;;1.00;;
21270;SDS011;10795;50.796;3.860;2023-08-20T17:58:38;2.42;;;0.80;;
21270;SDS011;10795;50.796;3.860;2023-08-20T18:01:10;4.78;;;1.20;;
21270;SDS011;10795;50.796;3.860;2023-08-20T18:06:07;5.80;;;1.10;;
21270;SDS011;10795;50.796;3.860;2023-08-20T18:08:42;4.38;;;1.23;;
21270;SDS011;10795;50.796;3.860;2023-08-20T18:11:35;4.43;;;1.27;;
21270;SDS011;10795;50.796;3.860;2023-08-20T18:14:04;8.02;;;1.25;;
21270;SDS011;10795;50.796;3.860;2023-08-20T18:16:39;5.38;;;1.05;;
21270;SDS011;10795;50.796;3.860;2023-08-20T18:19:14;6.03;;;1.38;;
21270;SDS011;10795;50.796;3.860;2023-08-20T18:21:41;3.97;;;1.17;;
21270;SDS011;10795;50.796;3.860;2023-08-20T18:26:38;7.82;;;1.35;;
21270;SDS011;10795;50.796;3.860;2023-08-20T18:29:04;5.60;;;1.13;;
21270;SDS011;10795;50.796;3.860;2023-08-20T18:31:33;6.57;;;1.63;;
21270;SDS011;10795;50.796;3.860;2023-08-20T18:33:59;6.45;;;1.48;;
21270;SDS011;10795;50.796;3.860;2023-08-20T18:36:33;5.70;;;1.52;;
21270;SDS011;10795;50.796;3.860;2023-08-20T18:39:09;5.97;;;1.10;;
21270;SDS011;10795;50.796;3.860;2023-08-20T18:41:47;6.47;;;1.50;;
21270;SDS011;10795;50.796;3.860;2023-08-20T18:44:16;2.67;;;1.05;;
21270;SDS011;10795;50.796;3.860;2023-08-20T18:46:44;3.20;;;1.20;;
21270;SDS011;10795;50.796;3.860;2023-08-20T18:49:10;3.47;;;0.95;;
21270;SDS011;10795;50.796;3.860;2023-08-20T18:51:38;3.80;;;0.70;;
21270;SDS011;10795;50.796;3.860;2023-08-20T18:54:04;6.82;;;1.50;;
21270;SDS011;10795;50.796;3.860;2023-08-20T18:56:30;3.60;;;0.98;;
21270;SDS011;10795;50.796;3.860;2023-08-20T18:58:58;8.00;;;1.17;;
21270;SDS011;10795;50.796;3.860;2023-08-20T19:01:26;4.72;;;1.05;;
21270;SDS011;10795;50.796;3.860;2023-08-20T19:03:55;4.28;;;1.05;;
21270;SDS011;10795;50.796;3.860;2023-08-20T19:06:23;4.05;;;1.10;;
21270;SDS011;10795;50.796;3.860;2023-08-20T19:08:52;4.22;;;0.70;;
21270;SDS011;10795;50.796;3.860;2023-08-20T19:11:18;3.10;;;1.05;;
21270;SDS011;10795;50.796;3.860;2023-08-20T19:13:44;3.85;;;1.02;;
21270;SDS011;10795;50.796;3.860;2023-08-20T19:16:12;6.75;;;1.10;;
21270;SDS011;10795;50.796;3.860;2023-08-20T19:18:40;3.65;;;0.98;;
21270;SDS011;10795;50.796;3.860;2023-08-20T19:21:06;3.88;;;0.70;;
21270;SDS011;10795;50.796;3.860;2023-08-20T19:23:32;2.95;;;0.98;;
21270;SDS011;10795;50.796;3.860;2023-08-20T19:26:00;5.57;;;0.90;;
21270;SDS011;10795;50.796;3.860;2023-08-20T19:28:28;3.83;;;1.00;;
21270;SDS011;10795;50.796;3.860;2023-08-20T19:30:55;6.85;;;1.08;;
21270;SDS011;10795;50.796;3.860;2023-08-20T19:33:21;3.70;;;0.93;;
21270;SDS011;10795;50.796;3.860;2023-08-20T19:35:50;7.13;;;1.65;;
21270;SDS011;10795;50.796;3.860;2023-08-20T19:38:16;3.42;;;0.80;;
21270;SDS011;10795;50.796;3.860;2023-08-20T19:40:45;3.40;;;0.80;;
21270;SDS011;10795;50.796;3.860;2023-08-20T19:43:12;2.83;;;1.00;;
21270;SDS011;10795;50.796;3.860;2023-08-20T19:45:38;3.10;;;0.80;;
21270;SDS011;10795;50.796;3.860;2023-08-20T19:48:04;4.28;;;0.95;;
21270;SDS011;10795;50.796;3.860;2023-08-20T19:50:30;2.65;;;0.88;;
21270;SDS011;10795;50.796;3.860;2023-08-20T19:52:56;1.75;;;0.70;;
21270;SDS011;10795;50.796;3.860;2023-08-20T19:55:22;7.10;;;1.20;;
21270;SDS011;10795;50.796;3.860;2023-08-20T19:57:48;4.20;;;1.10;;
21270;SDS011;10795;50.796;3.860;2023-08-20T20:00:17;3.58;;;0.82;;
21270;SDS011;10795;50.796;3.860;2023-08-20T20:02:45;3.35;;;1.00;;
21270;SDS011;10795;50.796;3.860;2023-08-20T20:05:12;6.05;;;1.20;;
21270;SDS011;10795;50.796;3.860;2023-08-20T20:07:42;4.35;;;0.70;;
21270;SDS011;10795;50.796;3.860;2023-08-20T20:10:08;1.83;;;0.75;;
21270;SDS011;10795;50.796;3.860;2023-08-20T20:12:35;5.93;;;0.80;;
21270;SDS011;10795;50.796;3.860;2023-08-20T20:15:03;2.33;;;0.70;;
21270;SDS011;10795;50.796;3.860;2023-08-20T20:17:30;3.88;;;0.95;;
21270;SDS011;10795;50.796;3.860;2023-08-20T20:19:57;5.07;;;0.82;;
21270;SDS011;10795;50.796;3.860;2023-08-20T20:22:26;3.80;;;0.90;;
21270;SDS011;10795;50.796;3.860;2023-08-20T20:24:53;2.63;;;0.88;;
21270;SDS011;10795;50.796;3.860;2023-08-20T20:27:22;3.75;;;0.82;;
21270;SDS011;10795;50.796;3.860;2023-08-20T20:29:48;5.63;;;1.13;;
21270;SDS011;10795;50.796;3.860;2023-08-20T20:32:16;3.85;;;0.73;;
21270;SDS011;10795;50.796;3.860;2023-08-20T20:34:43;1.80;;;0.70;;
21270;SDS011;10795;50.796;3.860;2023-08-20T20:37:09;2.35;;;0.60;;
21270;SDS011;10795;50.796;3.860;2023-08-20T20:39:36;8.32;;;1.15;;
21270;SDS011;10795;50.796;3.860;2023-08-20T20:42:03;5.10;;;1.20;;
21270;SDS011;10795;50.796;3.860;2023-08-20T20:44:29;3.15;;;1.00;;
21270;SDS011;10795;50.796;3.860;2023-08-20T20:46:55;5.93;;;1.10;;
21270;SDS011;10795;50.796;3.860;2023-08-20T20:49:24;1.40;;;0.60;;
21270;SDS011;10795;50.796;3.860;2023-08-20T20:54:19;5.80;;;1.10;;
21270;SDS011;10795;50.796;3.860;2023-08-20T20:56:45;4.35;;;0.80;;
21270;SDS011;10795;50.796;3.860;2023-08-20T20:59:10;3.20;;;1.25;;
21270;SDS011;10795;50.796;3.860;2023-08-20T21:01:37;3.88;;;0.70;;
21270;SDS011;10795;50.796;3.860;2023-08-20T21:04:02;1.67;;;0.50;;
21270;SDS011;10795;50.796;3.860;2023-08-20T21:06:28;3.22;;;0.90;;
21270;SDS011;10795;50.796;3.860;2023-08-20T21:08:54;3.53;;;0.98;;
21270;SDS011;10795;50.796;3.860;2023-08-20T21:11:21;6.18;;;1.15;;
21270;SDS011;10795;50.796;3.860;2023-08-20T21:13:47;3.78;;;0.90;;
21270;SDS011;10795;50.796;3.860;2023-08-20T21:16:12;3.08;;;0.82;;
21270;SDS011;10795;50.796;3.860;2023-08-20T21:18:38;2.65;;;0.77;;
21270;SDS011;10795;50.796;3.860;2023-08-20T21:21:04;3.40;;;0.95;;
21270;SDS011;10795;50.796;3.860;2023-08-20T21:23:30;4.32;;;0.73;;
21270;SDS011;10795;50.796;3.860;2023-08-20T21:25:56;1.45;;;0.40;;
21270;SDS011;10795;50.796;3.860;2023-08-20T21:28:22;5.10;;;0.80;;
21270;SDS011;10795;50.796;3.860;2023-08-20T21:30:48;4.90;;;0.93;;
21270;SDS011;10795;50.796;3.860;2023-08-20T21:33:13;4.35;;;0.80;;
21270;SDS011;10795;50.796;3.860;2023-08-20T21:35:39;4.70;;;0.88;;
21270;SDS011;10795;50.796;3.860;2023-08-20T21:38:05;2.33;;;0.60;;
21270;SDS011;10795;50.796;3.860;2023-08-20T21:40:31;4.15;;;0.50;;
21270;SDS011;10795;50.796;3.860;2023-08-20T21:42:57;5.07;;;1.10;;
21270;SDS011;10795;50.796;3.860;2023-08-20T21:45:23;2.25;;;0.77;;
21270;SDS011;10795;50.796;3.860;2023-08-20T21:47:49;4.13;;;0.95;;
21270;SDS011;10795;50.796;3.860;2023-08-20T21:50:15;4.95;;;0.75;;
21270;SDS011;10795;50.796;3.860;2023-08-20T21:52:44;4.13;;;1.23;;
21270;SDS011;10795;50.796;3.860;2023-08-20T21:55:11;3.03;;;0.75;;
21270;SDS011;10795;50.796;3.860;2023-08-20T21:57:43;5.10;;;1.25;;
21270;SDS011;10795;50.796;3.860;2023-08-20T22:00:09;6.82;;;1.00;;
21270;SDS011;10795;50.796;3.860;2023-08-20T22:02:41;2.65;;;0.80;;
21270;SDS011;10795;50.796;3.860;2023-08-20T22:07:50;3.75;;;0.73;;
21270;SDS011;10795;50.796;3.860;2023-08-20T22:10:16;3.63;;;0.60;;
21270;SDS011;10795;50.796;3.860;2023-08-20T22:12:44;4.15;;;0.88;;
21270;SDS011;10795;50.796;3.860;2023-08-20T22:15:10;3.00;;;0.80;;
21270;SDS011;10795;50.796;3.860;2023-08-20T22:17:36;4.63;;;0.82;;
21270;SDS011;10795;50.796;3.860;2023-08-20T22:20:04;7.03;;;1.15;;
21270;SDS011;10795;50.796;3.860;2023-08-20T22:22:36;3.47;;;0.70;;
21270;SDS011;10795;50.796;3.860;2023-08-20T22:25:03;4.30;;;0.85;;
21270;SDS011;10795;50.796;3.860;2023-08-20T22:27:30;4.65;;;0.80;;
21270;SDS011;10795;50.796;3.860;2023-08-20T22:29:56;4.95;;;0.80;;
21270;SDS011;10795;50.796;3.860;2023-08-20T22:32:22;2.10;;;0.55;;
21270;SDS011;10795;50.796;3.860;2023-08-20T22:34:49;4.78;;;1.00;;
21270;SDS011;10795;50.796;3.860;2023-08-20T22:37:21;1.42;;;0.57;;
21270;SDS011;10795;50.796;3.860;2023-08-20T22:39:48;2.40;;;0.77;;
21270;SDS011;10795;50.796;3.860;2023-08-20T22:42:17;4.30;;;1.08;;
21270;SDS011;10795;50.796;3.860;2023-08-20T22:44:44;5.55;;;1.13;;
21270;SDS011;10795;50.796;3.860;2023-08-20T22:47:10;6.88;;;0.90;;
21270;SDS011;10795;50.796;3.860;2023-08-20T22:49:36;3.92;;;1.52;;
21270;SDS011;10795;50.796;3.860;2023-08-20T22:52:02;3.28;;;1.20;;
21270;SDS011;10795;50.796;3.860;2023-08-20T22:54:32;4.70;;;1.40;;
21270;SDS011;10795;50.796;3.860;2023-08-20T22:56:58;2.88;;;0.73;;
21270;SDS011;10795;50.796;3.860;2023-08-20T22:59:24;2.85;;;1.05;;
21270;SDS011;10795;50.796;3.860;2023-08-20T23:01:53;3.72;;;0.77;;
21270;SDS011;10795;50.796;3.860;2023-08-20T23:04:21;1.95;;;0.85;;
21270;SDS011;10795;50.796;3.860;2023-08-20T23:06:47;3.70;;;0.95;;
21270;SDS011;10795;50.796;3.860;2023-08-20T23:09:13;4.43;;;1.25;;
21270;SDS011;10795;50.796;3.860;2023-08-20T23:11:39;2.33;;;0.60;;
21270;SDS011;10795;50.796;3.860;2023-08-20T23:14:08;2.75;;;0.90;;
21270;SDS011;10795;50.796;3.860;2023-08-20T23:16:33;3.13;;;0.90;;
21270;SDS011;10795;50.796;3.860;2023-08-20T23:18:59;4.70;;;1.50;;
21270;SDS011;10795;50.796;3.860;2023-08-20T23:21:25;7.10;;;1.10;;
21270;SDS011;10795;50.796;3.860;2023-08-20T23:23:51;2.90;;;0.65;;
21270;SDS011;10795;50.796;3.860;2023-08-20T23:26:17;5.25;;;1.20;;
21270;SDS011;10795;50.796;3.860;2023-08-20T23:28:43;3.83;;;1.00;;
21270;SDS011;10795;50.796;3.860;2023-08-20T23:31:09;4.75;;;1.30;;
21270;SDS011;10795;50.796;3.860;2023-08-20T23:33:38;3.47;;;0.90;;
21270;SDS011;10795;50.796;3.860;2023-08-20T23:36:04;0.80;;;0.40;;
21270;SDS011;10795;50.796;3.860;2023-08-20T23:38:30;2.92;;;1.30;;
21270;SDS011;10795;50.796;3.860;2023-08-20T23:41:03;6.45;;;1.30;;
21270;SDS011;10795;50.796;3.860;2023-08-20T23:43:29;3.60;;;0.98;;
21270;SDS011;10795;50.796;3.860;2023-08-20T23:45:54;2.00;;;0.70;;
21270;SDS011;10795;50.796;3.860;2023-08-20T23:48:23;4.50;;;0.90;;
21270;SDS011;10795;50.796;3.860;2023-08-20T23:50:49;6.60;;;1.23;;
21270;SDS011;10795;50.796;3.860;2023-08-20T23:53:14;2.83;;;1.00;;
21270;SDS011;10795;50.796;3.860;2023-08-20T23:55:42;6.03;;;1.30;;
21270;SDS011;10795;50.796;3.860;2023-08-20T23:58:08;4.38;;;1.48;;
